createdAt,value
2018-09-15T00:00:29.467Z,11.30
2018-09-15T00:02:57.462Z,10.20
2018-09-15T00:05:25.804Z,10.60
2018-09-15T00:07:53.806Z,11.17
2018-09-15T00:10:21.805Z,11.00
2018-09-15T00:12:49.881Z,11.13
2018-09-15T00:15:17.877Z,10.30
2018-09-15T00:17:47.112Z,10.90
2018-09-15T00:20:15.154Z,11.87
2018-09-15T00:22:43.186Z,9.93
2018-09-15T00:25:11.198Z,10.00
2018-09-15T00:27:39.239Z,12.30
2018-09-15T00:30:07.243Z,11.30
2018-09-15T00:32:35.291Z,11.00
2018-09-15T00:35:03.289Z,11.17
2018-09-15T00:37:31.303Z,10.10
2018-09-15T00:39:59.587Z,10.10
2018-09-15T00:42:27.682Z,10.20
2018-09-15T00:44:56.569Z,10.97
2018-09-15T00:47:24.734Z,10.50
2018-09-15T00:49:53.142Z,12.40
2018-09-15T00:52:21.126Z,10.70
2018-09-15T00:54:49.125Z,10.80
2018-09-15T00:57:17.183Z,10.63
2018-09-15T00:59:45.182Z,11.13
2018-09-15T01:02:13.266Z,10.63
2018-09-15T01:04:41.669Z,10.27
2018-09-15T01:07:09.662Z,9.90
2018-09-15T01:09:37.756Z,10.17
2018-09-15T01:12:06.071Z,11.37
2018-09-15T01:14:34.090Z,9.47
2018-09-15T01:17:02.142Z,8.63
2018-09-15T01:19:30.168Z,9.90
2018-09-15T01:21:58.459Z,9.67
2018-09-15T01:24:26.550Z,11.30
2018-09-15T01:26:54.554Z,11.20
2018-09-15T01:29:22.576Z,10.50
2018-09-15T01:31:50.933Z,10.30
2018-09-15T01:34:18.930Z,11.27
2018-09-15T01:36:46.930Z,11.77
2018-09-15T01:39:15.016Z,10.10
2018-09-15T01:41:43.049Z,10.10
2018-09-15T01:44:11.062Z,10.20
2018-09-15T01:46:39.320Z,10.17
2018-09-15T01:49:07.446Z,9.50
2018-09-15T01:51:35.438Z,11.20
2018-09-15T01:54:03.470Z,9.87
2018-09-15T01:56:31.509Z,8.63
2018-09-15T01:58:59.607Z,9.80
2018-09-15T02:01:34.633Z,9.07
2018-09-15T02:04:02.658Z,9.00
2018-09-15T02:06:30.657Z,9.80
2018-09-15T02:08:58.694Z,10.63
2018-09-15T02:11:26.758Z,10.00
2018-09-15T02:13:54.793Z,9.87
2018-09-15T02:16:22.953Z,9.93
2018-09-15T02:18:50.986Z,10.43
2018-09-15T02:21:19.122Z,9.60
2018-09-15T02:23:47.230Z,11.27
2018-09-15T02:26:15.229Z,10.80
2018-09-15T02:28:43.318Z,11.97
2018-09-15T02:31:11.382Z,11.67
2018-09-15T02:33:39.514Z,11.10
2018-09-15T02:36:07.565Z,9.93
2018-09-15T02:38:35.603Z,11.40
2018-09-15T02:41:03.629Z,10.33
2018-09-15T02:43:31.698Z,11.23
2018-09-15T02:45:59.794Z,10.53
2018-09-15T02:48:27.889Z,10.87
2018-09-15T02:50:55.951Z,11.13
2018-09-15T02:53:23.950Z,11.23
2018-09-15T02:55:52.024Z,10.97
2018-09-15T02:58:20.265Z,10.53
2018-09-15T03:00:48.369Z,10.73
2018-09-15T03:03:16.369Z,11.73
2018-09-15T03:05:44.414Z,10.83
2018-09-15T03:08:12.423Z,10.80
2018-09-15T03:10:40.508Z,11.40
2018-09-15T03:13:08.798Z,12.00
2018-09-15T03:15:36.855Z,10.50
2018-09-15T03:18:04.870Z,10.80
2018-09-15T03:20:32.910Z,9.93
2018-09-15T03:23:00.918Z,9.97
2018-09-15T03:25:29.340Z,10.43
2018-09-15T03:27:57.348Z,10.67
2018-09-15T03:30:25.530Z,10.83
2018-09-15T03:32:53.570Z,10.73
2018-09-15T03:35:21.616Z,10.00
2018-09-15T03:37:49.717Z,11.63
2018-09-15T03:40:17.810Z,11.10
2018-09-15T03:42:45.807Z,10.50
2018-09-15T03:45:13.886Z,13.70
2018-09-15T03:47:41.921Z,11.07
2018-09-15T03:50:09.914Z,9.80
2018-09-15T03:52:37.962Z,11.97
2018-09-15T03:55:06.085Z,11.43
2018-09-15T03:57:34.130Z,10.57
2018-09-15T04:00:02.258Z,10.80
2018-09-15T04:02:30.598Z,12.10
2018-09-15T04:04:58.587Z,10.40
2018-09-15T04:07:26.590Z,9.33
2018-09-15T04:09:54.666Z,11.17
2018-09-15T04:12:22.628Z,12.27
2018-09-15T04:14:50.677Z,11.50
2018-09-15T04:17:18.776Z,10.63
2018-09-15T04:19:47.047Z,10.70
2018-09-15T04:22:15.206Z,10.43
2018-09-15T04:24:43.214Z,9.87
2018-09-15T04:27:11.459Z,10.33
2018-09-15T04:29:39.562Z,10.93
2018-09-15T04:32:07.666Z,9.17
2018-09-15T04:34:35.804Z,11.10
2018-09-15T04:37:03.798Z,10.10
2018-09-15T04:39:31.845Z,10.80
2018-09-15T04:41:59.954Z,10.93
2018-09-15T04:44:27.991Z,9.67
2018-09-15T04:46:56.047Z,11.30
2018-09-15T04:49:24.078Z,11.37
2018-09-15T04:51:52.123Z,11.43
2018-09-15T04:54:20.117Z,12.10
2018-09-15T04:56:48.209Z,11.50
2018-09-15T04:59:16.626Z,12.50
2018-09-15T05:01:44.633Z,11.83
2018-09-15T05:04:12.709Z,10.60
2018-09-15T05:06:40.875Z,11.07
2018-09-15T05:09:10.243Z,10.70
2018-09-15T05:11:38.286Z,11.70
2018-09-15T05:14:06.381Z,10.73
2018-09-15T05:16:34.391Z,10.13
2018-09-15T05:19:02.409Z,10.80
2018-09-15T05:21:30.412Z,12.50
2018-09-15T05:23:58.454Z,11.63
2018-09-15T05:26:26.510Z,11.77
2018-09-15T05:28:54.525Z,10.80
2018-09-15T05:31:22.614Z,12.50
2018-09-15T05:33:51.056Z,13.07
2018-09-15T05:36:19.128Z,10.90
2018-09-15T05:38:47.200Z,11.70
2018-09-15T05:41:15.286Z,11.73
2018-09-15T05:43:43.409Z,12.00
2018-09-15T05:46:11.426Z,12.63
2018-09-15T05:48:39.794Z,11.17
2018-09-15T05:51:07.788Z,12.40
2018-09-15T05:53:36.312Z,11.93
2018-09-15T05:56:04.415Z,10.10
2018-09-15T05:58:32.372Z,12.53
2018-09-15T06:01:00.445Z,12.57
2018-09-15T06:03:28.462Z,11.33
2018-09-15T06:05:56.498Z,11.53
2018-09-15T06:08:24.762Z,12.20
2018-09-15T06:10:52.814Z,11.67
2018-09-15T06:13:20.812Z,12.27
2018-09-15T06:15:48.862Z,10.87
2018-09-15T06:18:17.158Z,12.23
2018-09-15T06:20:45.177Z,12.07
2018-09-15T06:23:13.174Z,11.73
2018-09-15T06:25:41.242Z,11.70
2018-09-15T06:28:09.238Z,12.17
2018-09-15T06:30:37.239Z,12.93
2018-09-15T06:33:05.275Z,10.70
2018-09-15T06:35:33.318Z,11.10
2018-09-15T06:38:01.322Z,10.60
2018-09-15T06:40:29.358Z,10.97
2018-09-15T06:42:57.509Z,10.20
2018-09-15T06:45:25.592Z,11.23
2018-09-15T06:47:53.805Z,10.07
2018-09-15T06:50:21.798Z,10.20
2018-09-15T06:52:49.793Z,8.87
2018-09-15T06:55:17.861Z,9.17
2018-09-15T06:57:45.893Z,10.00
2018-09-15T07:00:13.961Z,7.93
2018-09-15T07:02:41.959Z,9.93
2018-09-15T07:05:10.073Z,9.07
2018-09-15T07:07:38.070Z,7.77
2018-09-15T07:10:06.097Z,8.83
2018-09-15T07:12:34.130Z,7.50
2018-09-15T07:15:02.167Z,7.93
2018-09-15T07:17:30.201Z,7.07
2018-09-15T07:19:58.511Z,7.90
2018-09-15T07:22:26.488Z,5.90
2018-09-15T07:24:54.594Z,6.13
2018-09-15T07:27:22.947Z,6.20
2018-09-15T07:29:51.038Z,5.93
2018-09-15T07:32:19.142Z,6.40
2018-09-15T07:34:47.360Z,6.10
2018-09-15T07:37:15.345Z,6.00
2018-09-15T07:39:43.445Z,6.53
2018-09-15T07:42:11.437Z,6.00
2018-09-15T07:44:39.622Z,6.20
2018-09-15T07:47:07.807Z,6.10
2018-09-15T07:49:35.838Z,5.80
2018-09-15T07:52:03.929Z,5.33
2018-09-15T07:54:31.997Z,4.90
2018-09-15T07:57:00.025Z,4.37
2018-09-15T07:59:28.461Z,4.50
2018-09-15T08:01:56.674Z,4.33
2018-09-15T08:04:24.721Z,5.43
2018-09-15T08:06:52.758Z,4.23
2018-09-15T08:09:21.027Z,5.33
2018-09-15T08:11:49.029Z,5.33
2018-09-15T08:14:17.026Z,5.90
2018-09-15T08:16:45.058Z,5.70
2018-09-15T08:19:13.089Z,5.27
2018-09-15T08:21:41.193Z,4.80
2018-09-15T08:24:09.192Z,5.90
2018-09-15T08:26:37.234Z,5.20
2018-09-15T08:29:05.253Z,5.90
2018-09-15T08:31:33.382Z,6.77
2018-09-15T08:34:01.587Z,6.00
2018-09-15T08:36:29.789Z,5.17
2018-09-15T08:38:57.790Z,5.23
2018-09-15T08:41:25.893Z,5.47
2018-09-15T08:43:54.079Z,5.53
2018-09-15T08:46:22.065Z,6.50
2018-09-15T08:48:50.082Z,5.80
2018-09-15T08:51:18.153Z,5.03
2018-09-15T08:53:46.189Z,4.37
2018-09-15T08:56:14.281Z,3.47
2018-09-15T08:58:42.296Z,3.90
2018-09-15T09:01:10.341Z,3.00
2018-09-15T09:03:38.391Z,2.80
2018-09-15T09:06:06.546Z,3.43
2018-09-15T09:08:34.596Z,2.73
2018-09-15T09:11:02.594Z,1.77
2018-09-15T09:13:31.466Z,2.40
2018-09-15T09:15:59.621Z,2.53
2018-09-15T09:18:27.673Z,2.00
2018-09-15T09:20:55.706Z,1.20
2018-09-15T09:23:23.785Z,1.50
2018-09-15T09:25:51.865Z,2.33
2018-09-15T09:28:19.956Z,1.67
2018-09-15T09:30:47.997Z,1.50
2018-09-15T09:33:16.172Z,1.40
2018-09-15T09:35:44.101Z,1.20
2018-09-15T09:38:12.457Z,1.00
2018-09-15T09:40:40.697Z,1.10
2018-09-15T09:43:08.689Z,1.37
2018-09-15T09:45:36.693Z,0.80
2018-09-15T09:51:07.462Z,1.47
2018-09-15T09:53:35.489Z,1.10
2018-09-15T09:56:03.471Z,0.80
2018-09-15T09:58:31.519Z,0.90
2018-09-15T10:01:03.819Z,1.20
2018-09-15T10:03:32.280Z,1.03
2018-09-15T10:06:00.417Z,1.07
2018-09-15T10:08:28.785Z,1.50
2018-09-15T10:10:56.923Z,0.70
2018-09-15T10:13:24.918Z,0.90
2018-09-15T10:15:53.061Z,0.73
2018-09-15T10:18:21.005Z,0.87
2018-09-15T10:20:49.205Z,0.70
2018-09-15T10:23:17.197Z,0.93
2018-09-15T10:25:45.357Z,0.80
2018-09-15T10:28:13.502Z,0.80
2018-09-15T10:30:41.536Z,1.37
2018-09-15T10:33:09.557Z,0.83
2018-09-15T10:35:37.681Z,1.13
2018-09-15T10:38:05.904Z,0.70
2018-09-15T10:40:34.051Z,0.70
2018-09-15T10:43:02.084Z,0.80
2018-09-15T10:45:30.187Z,0.97
2018-09-15T10:47:58.292Z,1.03
2018-09-15T10:50:26.424Z,1.00
2018-09-15T10:52:54.570Z,1.10
2018-09-15T10:55:22.685Z,1.00
2018-09-15T10:57:50.752Z,0.80
2018-09-15T11:00:18.827Z,0.90
2018-09-15T11:02:47.060Z,0.87
2018-09-15T11:05:15.053Z,0.80
2018-09-15T11:07:43.171Z,0.80
2018-09-15T11:10:11.202Z,0.90
2018-09-15T11:12:39.346Z,1.10
2018-09-15T11:15:07.499Z,1.10
2018-09-15T11:17:35.506Z,0.80
2018-09-15T11:20:03.849Z,1.33
2018-09-15T11:22:31.974Z,1.13
2018-09-15T11:24:59.957Z,0.90
2018-09-15T11:27:28.024Z,0.70
2018-09-15T11:29:56.027Z,1.10
2018-09-15T11:32:24.106Z,1.00
2018-09-15T11:34:52.098Z,0.70
2018-09-15T11:37:20.137Z,0.70
2018-09-15T11:39:48.305Z,0.80
2018-09-15T11:42:16.606Z,0.70
2018-09-15T11:44:44.763Z,0.70
2018-09-15T11:47:12.802Z,0.80
2018-09-15T11:49:40.957Z,0.70
2018-09-15T11:52:09.054Z,0.63
2018-09-15T11:54:37.061Z,0.77
2018-09-15T11:57:05.082Z,0.60
2018-09-15T11:59:33.185Z,0.60
2018-09-15T12:02:01.371Z,0.63
2018-09-15T12:04:29.591Z,0.70
2018-09-15T12:06:57.572Z,0.90
2018-09-15T12:09:25.574Z,1.87
2018-09-15T12:11:53.770Z,0.80
2018-09-15T12:14:21.787Z,0.60
2018-09-15T12:16:49.758Z,0.60
2018-09-15T12:19:17.865Z,0.50
2018-09-15T12:21:46.003Z,0.70
2018-09-15T12:24:14.054Z,0.50
2018-09-15T12:26:42.093Z,0.70
2018-09-15T12:29:10.142Z,0.63
2018-09-15T12:31:38.348Z,0.60
2018-09-15T12:34:06.401Z,0.77
2018-09-15T12:36:34.433Z,0.50
2018-09-15T12:39:02.509Z,0.53
2018-09-15T12:41:30.531Z,0.70
2018-09-15T12:43:59.137Z,0.60
2018-09-15T12:46:27.122Z,0.60
2018-09-15T12:48:55.208Z,0.60
2018-09-15T12:51:23.323Z,0.70
2018-09-15T12:53:51.475Z,1.17
2018-09-15T12:56:19.518Z,0.90
2018-09-15T12:58:47.719Z,0.80
2018-09-15T13:01:15.816Z,0.63
2018-09-15T13:03:44.010Z,0.70
2018-09-15T13:06:13.015Z,0.70
2018-09-15T13:08:41.121Z,0.70
2018-09-15T13:11:09.269Z,0.60
2018-09-15T13:13:37.283Z,1.43
2018-09-15T13:16:05.417Z,0.60
2018-09-15T13:18:33.517Z,0.50
2018-09-15T13:21:01.634Z,0.57
2018-09-15T13:23:29.720Z,0.70
2018-09-15T13:25:57.773Z,0.50
2018-09-15T13:28:26.113Z,0.53
2018-09-15T13:30:54.213Z,0.70
2018-09-15T13:33:22.302Z,0.60
2018-09-15T13:35:50.405Z,0.60
2018-09-15T13:38:18.474Z,0.80
2018-09-15T13:40:46.596Z,0.93
2018-09-15T13:43:14.684Z,0.60
2018-09-15T13:45:42.674Z,1.27
2018-09-15T13:48:10.753Z,0.50
2018-09-15T13:50:38.942Z,0.53
2018-09-15T13:53:06.963Z,0.60
2018-09-15T13:55:34.969Z,0.70
2018-09-15T13:58:02.967Z,0.63
2018-09-15T14:00:31.129Z,0.80
2018-09-15T14:02:59.829Z,1.27
2018-09-15T14:05:28.218Z,0.60
2018-09-15T14:07:56.257Z,0.70
2018-09-15T14:10:24.469Z,0.67
2018-09-15T14:12:52.451Z,1.00
2018-09-15T14:15:20.603Z,0.60
2018-09-15T14:17:49.243Z,0.80
2018-09-15T14:20:17.288Z,1.13
2018-09-15T14:22:45.298Z,0.50
2018-09-15T14:25:13.305Z,0.50
2018-09-15T14:27:41.348Z,0.50
2018-09-15T14:30:09.513Z,0.80
2018-09-15T14:32:37.604Z,0.53
2018-09-15T14:35:05.655Z,0.60
2018-09-15T14:37:33.691Z,0.57
2018-09-15T14:40:01.708Z,0.70
2018-09-15T14:42:29.750Z,0.60
2018-09-15T14:44:57.809Z,0.60
2018-09-15T14:47:25.836Z,0.50
2018-09-15T14:49:53.898Z,0.60
2018-09-15T14:52:22.300Z,0.60
2018-09-15T14:54:50.366Z,0.80
2018-09-15T14:57:18.419Z,0.60
2018-09-15T14:59:46.430Z,0.60
2018-09-15T15:02:14.507Z,0.53
2018-09-15T15:04:42.612Z,0.57
2018-09-15T15:07:10.652Z,0.50
2018-09-15T15:09:38.682Z,0.60
2018-09-15T15:12:06.670Z,1.00
2018-09-15T15:14:34.673Z,0.60
2018-09-15T15:17:02.759Z,0.63
2018-09-15T15:19:30.944Z,0.63
2018-09-15T15:21:58.966Z,0.50
2018-09-15T15:24:27.018Z,0.80
2018-09-15T15:26:55.166Z,0.60
2018-09-15T15:29:23.195Z,0.70
2018-09-15T15:31:51.311Z,0.77
2018-09-15T15:34:19.663Z,0.70
2018-09-15T15:36:47.653Z,0.50
2018-09-15T15:39:15.653Z,0.50
2018-09-15T15:41:43.753Z,0.60
2018-09-15T15:44:11.748Z,0.70
2018-09-15T15:46:40.150Z,0.60
2018-09-15T15:49:08.149Z,0.60
2018-09-15T15:51:36.161Z,0.80
2018-09-15T15:54:04.336Z,0.60
2018-09-15T15:56:32.445Z,0.60
2018-09-15T15:59:00.450Z,0.70
2018-09-15T16:01:28.488Z,0.97
2018-09-15T16:03:59.246Z,0.50
2018-09-15T16:06:35.413Z,0.60
2018-09-15T16:09:07.363Z,0.70
2018-09-15T16:11:37.983Z,0.60
2018-09-15T16:14:07.032Z,0.70
2018-09-15T16:16:38.709Z,0.60
2018-09-15T16:19:08.641Z,0.60
2018-09-15T16:21:39.549Z,0.67
2018-09-15T16:24:09.446Z,1.00
2018-09-15T16:26:39.745Z,0.70
2018-09-15T16:29:10.140Z,0.67
2018-09-15T16:31:39.045Z,0.70
2018-09-15T16:34:08.645Z,0.70
2018-09-15T16:36:37.685Z,0.90
2018-09-15T16:39:08.893Z,0.60
2018-09-15T16:41:37.746Z,0.70
2018-09-15T16:44:07.155Z,0.83
2018-09-15T16:46:37.681Z,0.63
2018-09-15T16:49:08.011Z,0.90
2018-09-15T16:51:38.566Z,0.67
2018-09-15T16:54:07.997Z,0.70
2018-09-15T16:56:37.961Z,0.70
2018-09-15T16:59:08.134Z,1.00
2018-09-15T17:01:38.149Z,0.70
2018-09-15T17:04:09.277Z,0.70
2018-09-15T17:06:40.011Z,0.60
2018-09-15T17:09:12.228Z,0.90
2018-09-15T17:11:44.018Z,0.70
2018-09-15T17:14:12.058Z,0.80
2018-09-15T17:16:43.375Z,0.77
2018-09-15T17:19:11.241Z,0.60
2018-09-15T17:21:45.774Z,0.90
2018-09-15T17:24:13.866Z,1.37
2018-09-15T17:26:45.472Z,0.80
2018-09-15T17:29:14.116Z,0.80
2018-09-15T17:31:42.238Z,0.70
2018-09-15T17:34:10.555Z,0.83
2018-09-15T17:36:40.790Z,0.60
2018-09-15T17:39:17.178Z,0.80
2018-09-15T17:41:45.298Z,0.70
2018-09-15T17:44:13.344Z,0.70
2018-09-15T17:46:41.397Z,0.90
2018-09-15T17:49:09.519Z,0.90
2018-09-15T17:51:38.785Z,0.70
2018-09-15T17:54:08.645Z,0.87
2018-09-15T17:56:39.213Z,0.73
2018-09-15T17:59:09.186Z,1.10
2018-09-15T18:01:39.134Z,0.90
2018-09-15T18:04:09.234Z,1.13
2018-09-15T18:06:38.477Z,1.17
2018-09-15T18:09:10.467Z,1.60
2018-09-15T18:11:41.890Z,1.17
2018-09-15T18:14:13.190Z,1.07
2018-09-15T18:16:42.796Z,1.20
2018-09-15T18:19:13.481Z,1.10
2018-09-15T18:21:43.885Z,1.23
2018-09-15T18:24:14.870Z,1.10
2018-09-15T18:26:42.865Z,1.00
2018-09-15T18:29:10.975Z,1.20
2018-09-15T18:31:39.381Z,1.00
2018-09-15T18:34:07.946Z,1.27
2018-09-15T18:36:37.863Z,1.70
2018-09-15T18:39:09.835Z,1.10
2018-09-15T18:41:38.950Z,1.80
2018-09-15T18:44:08.688Z,1.00
2018-09-15T18:46:38.680Z,1.10
2018-09-15T18:49:08.240Z,1.40
2018-09-15T18:51:37.945Z,1.40
2018-09-15T18:54:07.789Z,2.20
2018-09-15T18:56:36.845Z,1.00
2018-09-15T18:59:06.333Z,0.90
2018-09-15T19:01:37.297Z,0.70
2018-09-15T19:04:07.921Z,0.70
2018-09-15T19:06:39.356Z,0.60
2018-09-15T19:09:09.110Z,0.67
2018-09-15T19:11:39.517Z,0.80
2018-09-15T19:14:08.586Z,0.90
2018-09-15T19:16:40.096Z,0.87
2018-09-15T19:19:09.339Z,0.63
2018-09-15T19:21:37.793Z,0.93
2018-09-15T19:24:08.161Z,0.63
2018-09-15T19:26:37.100Z,0.60
2018-09-15T19:29:06.680Z,0.60
2018-09-15T19:31:36.060Z,0.60
2018-09-15T19:34:06.883Z,0.50
2018-09-15T19:36:38.326Z,0.70
2018-09-15T19:39:09.733Z,0.60
2018-09-15T19:41:39.677Z,0.70
2018-09-15T19:44:08.396Z,0.50
2018-09-15T19:46:38.343Z,0.60
2018-09-15T19:49:09.469Z,0.63
2018-09-15T19:51:37.644Z,0.60
2018-09-15T19:54:07.381Z,0.50
2018-09-15T19:56:38.960Z,0.70
2018-09-15T19:59:08.779Z,0.60
2018-09-15T20:01:37.194Z,0.60
2018-09-15T20:04:06.022Z,0.70
2018-09-15T20:06:36.912Z,0.97
2018-09-15T20:09:08.038Z,0.60
2018-09-15T20:11:36.422Z,0.60
2018-09-15T20:14:05.766Z,0.80
2018-09-15T20:16:34.133Z,0.67
2018-09-15T20:19:03.187Z,1.27
2018-09-15T20:21:31.249Z,0.50
2018-09-15T20:24:03.588Z,1.07
2018-09-15T20:26:34.351Z,0.60
2018-09-15T20:29:04.881Z,0.80
2018-09-15T20:31:34.942Z,0.60
2018-09-15T20:34:04.780Z,1.53
2018-09-15T20:36:35.086Z,0.80
2018-09-15T20:39:05.403Z,0.80
2018-09-15T20:41:34.838Z,0.90
2018-09-15T20:44:04.560Z,0.80
2018-09-15T20:46:34.525Z,0.80
2018-09-15T20:49:04.088Z,1.03
2018-09-15T20:51:34.925Z,0.70
2018-09-15T20:54:04.889Z,0.70
2018-09-15T20:56:36.128Z,0.60
2018-09-15T20:59:06.827Z,0.70
2018-09-15T21:01:36.862Z,0.60
2018-09-15T21:04:05.886Z,0.60
2018-09-15T21:06:35.878Z,0.70
2018-09-15T21:09:07.916Z,0.50
2018-09-15T21:11:38.087Z,0.80
2018-09-15T21:14:07.682Z,0.60
2018-09-15T21:16:36.923Z,0.70
2018-09-15T21:19:07.416Z,0.70
2018-09-15T21:21:36.778Z,1.20
2018-09-15T21:24:06.554Z,2.10
2018-09-15T21:26:37.069Z,1.23
2018-09-15T21:29:07.708Z,1.43
2018-09-15T21:31:38.284Z,1.03
2018-09-15T21:34:07.366Z,2.00
2018-09-15T21:36:36.550Z,1.20
2018-09-15T21:39:08.238Z,1.00
2018-09-15T21:41:38.023Z,1.17
2018-09-15T21:44:07.385Z,0.80
2018-09-15T21:46:36.982Z,1.00
2018-09-15T21:49:06.729Z,0.80
2018-09-15T21:51:37.117Z,1.03
2018-09-15T21:54:07.895Z,0.83
2018-09-15T21:56:38.501Z,0.80
2018-09-15T21:59:08.890Z,0.73
2018-09-15T22:01:38.749Z,1.00
2018-09-15T22:04:13.928Z,0.87
2018-09-15T22:06:42.267Z,0.70
2018-09-15T22:09:11.795Z,1.10
2018-09-15T22:11:40.161Z,1.73
2018-09-15T22:14:08.955Z,1.33
2018-09-15T22:16:38.056Z,1.30
2018-09-15T22:19:08.409Z,1.00
2018-09-15T22:21:37.521Z,1.83
2018-09-15T22:24:07.834Z,1.10
2018-09-15T22:26:36.619Z,1.17
2018-09-15T22:29:06.555Z,1.60
2018-09-15T22:31:37.602Z,1.03
2018-09-15T22:34:06.166Z,1.30
2018-09-15T22:36:37.920Z,1.43
2018-09-15T22:39:07.922Z,1.50
2018-09-15T22:41:37.642Z,2.07
2018-09-15T22:44:07.960Z,4.17
2018-09-15T22:46:36.817Z,8.20
2018-09-15T22:49:06.734Z,2.43
2018-09-15T22:51:36.440Z,2.47
2018-09-15T22:54:06.585Z,2.30
2018-09-15T22:56:36.822Z,1.87
2018-09-15T22:59:06.758Z,1.40
2018-09-15T23:01:36.558Z,1.50
2018-09-15T23:04:07.817Z,2.47
2018-09-15T23:06:36.815Z,1.00
2018-09-15T23:09:07.718Z,1.00
2018-09-15T23:11:36.735Z,0.83
2018-09-15T23:14:07.201Z,1.03
2018-09-15T23:16:37.064Z,1.50
2018-09-15T23:19:07.410Z,1.23
2018-09-15T23:21:36.986Z,1.40
2018-09-15T23:24:05.538Z,0.97
2018-09-15T23:26:35.605Z,1.10
2018-09-15T23:29:05.396Z,1.73
2018-09-15T23:31:35.313Z,1.20
2018-09-15T23:34:05.677Z,1.43
2018-09-15T23:36:35.811Z,1.33
2018-09-15T23:39:06.962Z,1.97
2018-09-15T23:41:36.925Z,1.30
2018-09-15T23:44:06.742Z,1.40
2018-09-15T23:46:35.734Z,1.73
2018-09-15T23:49:05.749Z,1.57
2018-09-15T23:51:35.238Z,1.70
2018-09-15T23:54:04.930Z,1.77
2018-09-15T23:56:34.507Z,1.60
2018-09-15T23:59:05.669Z,1.70
